Terminal Aerodrome Forecast
Issued by NWS

Home | Current Version | Previous Version | Text Only | Print | Product List | Glossary On
Versions: 1 2 3 4 5 6 7 8 9 10 11 12 13 14 15
000
FTUS46 KSGX 282337
TAFSNA
TAF
KSNA 282337Z 2900/2924 21010KT P6SM SKC
     FM290200 VRB05KT P6SM FEW013
     FM290900 VRB03KT P6SM OVC011
     FM291700 VRB05KT P6SM SCT015
     FM291900 22010KT P6SM SCT100=

USA.gov is the U.S. government's official web portal to all federal, state and local government web resources and services.